Time;durP1;ratioP1;P1;durP2;ratioP2;P2;SDS_P1;SDS_P2;PMS_P1;PMS_P2;Temp;Humidity;BMP_temperature;BMP_pressure;BME280_temperature;BME280_humidity;BME280_pressure;Samples;Min_cycle;Max_cycle;Signal;HPM_P1;HPM_P2
2022/10/15 00:00:39;;;;;;;5.63;4.72;;;14.70;99.90;;;;;;5014543;28;20053;-52
2022/10/15 00:03:05;;;;;;;6.07;4.63;;;14.70;99.90;;;;;;5013914;28;20030;-52
2022/10/15 00:05:31;;;;;;;5.05;4.65;;;14.70;99.90;;;;;;5014750;28;20430;-51
2022/10/15 00:07:57;;;;;;;6.13;5.45;;;14.70;99.90;;;;;;5014414;28;20033;-49
2022/10/15 00:10:22;;;;;;;6.35;5.32;;;14.70;99.90;;;;;;5014102;28;20362;-49
2022/10/15 00:12:48;;;;;;;6.45;5.25;;;14.70;99.90;;;;;;5014146;28;20103;-49
2022/10/15 00:15:14;;;;;;;5.38;4.97;;;14.70;99.90;;;;;;5014208;28;20563;-53
2022/10/15 00:17:40;;;;;;;6.18;5.20;;;14.80;99.90;;;;;;5014411;28;20065;-51
2022/10/15 00:20:08;;;;;;;6.82;6.20;;;14.80;99.90;;;;;;5014161;28;20036;-50
2022/10/15 00:22:34;;;;;;;6.00;5.50;;;14.80;99.90;;;;;;5013684;28;20500;-51
2022/10/15 00:25:00;;;;;;;7.63;5.70;;;14.80;99.90;;;;;;5014229;28;20102;-52
2022/10/15 00:27:25;;;;;;;6.18;5.68;;;14.90;99.90;;;;;;5014006;28;20068;-53
2022/10/15 00:29:51;;;;;;;6.72;6.22;;;14.90;99.90;;;;;;5013894;28;20328;-52
2022/10/15 00:32:17;;;;;;;7.65;6.15;;;14.90;99.90;;;;;;5013708;28;20109;-53
2022/10/15 00:34:42;;;;;;;8.93;6.80;;;14.80;99.90;;;;;;5013807;28;20081;-52
2022/10/15 00:37:08;;;;;;;8.85;6.97;;;14.90;99.90;;;;;;5013777;28;20041;-53
2022/10/15 00:39:34;;;;;;;6.97;6.35;;;14.90;99.90;;;;;;5013750;28;20077;-49
2022/10/15 00:42:00;;;;;;;7.15;6.53;;;14.90;99.90;;;;;;5013356;28;20025;-51
2022/10/15 00:44:28;;;;;;;7.53;6.82;;;14.90;99.90;;;;;;5013751;28;20026;-53
2022/10/15 00:47:05;;;;;;;7.95;7.07;;;14.90;99.90;;;;;;5013972;28;20026;-48
2022/10/15 00:49:43;;;;;;;7.60;6.93;;;14.90;99.90;;;;;;5013484;28;20421;-47
2022/10/15 00:52:10;;;;;;;7.43;6.72;;;14.90;99.90;;;;;;5013005;28;20030;-50
2022/10/15 00:54:43;;;;;;;9.18;7.22;;;14.90;99.90;;;;;;5013072;28;20038;-54
2022/10/15 00:57:10;;;;;;;8.85;8.05;;;14.90;99.90;;;;;;5013266;28;20026;-53
2022/10/15 00:59:40;;;;;;;7.47;6.85;;;15.00;99.90;;;;;;5011878;28;20030;-52
2022/10/15 01:02:06;;;;;;;7.97;7.18;;;15.00;99.90;;;;;;5013024;28;20022;-54
2022/10/15 01:04:33;;;;;;;8.05;7.13;;;15.00;99.90;;;;;;5013288;28;20033;-50
2022/10/15 01:06:59;;;;;;;8.85;7.15;;;15.00;99.90;;;;;;5013108;28;20101;-48
2022/10/15 01:09:25;;;;;;;8.70;7.53;;;15.00;99.90;;;;;;5012760;28;20095;-50
2022/10/15 01:11:53;;;;;;;8.73;7.80;;;15.00;99.90;;;;;;5012912;28;20111;-49
2022/10/15 01:14:41;;;;;;;8.82;7.93;;;15.00;99.90;;;;;;5011398;28;20026;-48
2022/10/15 01:17:14;;;;;;;8.77;7.70;;;15.00;99.90;;;;;;5002229;28;20041;-50
2022/10/15 01:20:01;;;;;;;8.88;7.25;;;15.00;99.90;;;;;;5012604;28;20026;-53
2022/10/15 01:23:00;;;;;;;8.77;7.97;;;15.00;99.90;;;;;;5011974;28;20030;-51
2022/10/15 01:25:32;;;;;;;8.15;7.32;;;15.00;99.90;;;;;;5012590;28;20498;-51
2022/10/15 01:28:04;;;;;;;9.38;8.48;;;15.00;99.90;;;;;;5012514;28;20018;-53
2022/10/15 01:30:40;;;;;;;8.55;7.75;;;15.00;99.90;;;;;;5012459;28;20038;-48
2022/10/15 01:33:17;;;;;;;;;;;15.10;99.90;;;;;;5012898;28;20107;-48
2022/10/15 01:35:47;;;;;;;8.80;7.90;;;15.10;99.90;;;;;;5012481;28;19937;-52
2022/10/15 01:38:31;;;;;;;8.65;7.53;;;15.00;99.90;;;;;;5012232;28;20572;-52
2022/10/15 01:41:26;;;;;;;8.07;7.28;;;15.00;99.90;;;;;;5012411;28;20029;-50
2022/10/15 01:44:02;;;;;;;13.30;8.43;;;15.00;99.90;;;;;;4981729;28;20121;-51
2022/10/15 01:46:44;;;;;;;14.52;7.85;;;15.00;99.90;;;;;;5012508;28;20057;-52
2022/10/15 01:49:12;;;;;;;8.65;7.85;;;15.00;99.90;;;;;;5012282;28;20436;-50
2022/10/15 01:51:41;;;;;;;8.63;7.82;;;15.00;99.90;;;;;;5012024;28;20052;-52
2022/10/15 01:54:12;;;;;;;8.85;7.70;;;15.00;99.90;;;;;;5010779;28;20383;-49
2022/10/15 01:56:39;;;;;;;43.90;35.65;;;15.00;99.90;;;;;;5012124;28;20029;-50
2022/10/15 01:59:07;;;;;;;32.95;23.13;;;15.00;99.90;;;;;;5011143;28;20026;-48
2022/10/15 02:01:33;;;;;;;54.97;39.70;;;15.10;99.90;;;;;;5012567;28;20030;-50
2022/10/15 02:03:58;;;;;;;10.70;9.68;;;15.10;99.90;;;;;;5012080;28;20033;-53
2022/10/15 02:06:41;;;;;;;8.88;8.07;;;15.10;99.90;;;;;;5011548;28;20025;-48
2022/10/15 02:09:34;;;;;;;8.50;7.72;;;15.10;99.90;;;;;;5016092;28;20559;-50
2022/10/15 02:12:50;;;;;;;10.52;7.80;;;15.10;99.90;;;;;;5014017;28;20041;-49
2022/10/15 02:15:24;;;;;;;9.25;8.35;;;15.10;99.90;;;;;;5020926;22;20142;-44
2022/10/15 02:18:11;;;;;;;9.93;8.93;;;15.10;99.90;;;;;;4976472;28;20066;-45
2022/10/15 02:21:08;;;;;;;11.25;9.93;;;15.10;99.90;;;;;;4975879;28;20022;-45
2022/10/15 02:23:50;;;;;;;11.85;10.60;;;15.10;99.90;;;;;;4963987;28;20054;-45
2022/10/15 02:26:17;;;;;;;12.23;10.15;;;15.10;99.90;;;;;;4976602;28;20030;-49
2022/10/15 02:28:50;;;;;;;14.38;11.43;;;15.10;99.90;;;;;;4976737;28;20023;-45
2022/10/15 02:31:17;;;;;;;12.05;10.85;;;15.10;99.90;;;;;;4975187;28;20027;-45
2022/10/15 02:33:44;;;;;;;25.10;10.80;;;15.10;99.90;;;;;;4976954;28;20023;-48
2022/10/15 02:36:10;;;;;;;13.70;11.80;;;15.10;99.90;;;;;;4975749;28;20027;-49
2022/10/15 02:38:39;;;;;;;13.80;11.68;;;15.10;99.90;;;;;;4976017;28;20082;-46
2022/10/15 02:41:07;;;;;;;15.27;12.90;;;15.10;99.90;;;;;;4976420;28;20463;-45
2022/10/15 02:43:34;;;;;;;15.18;13.63;;;15.10;99.90;;;;;;4975256;28;20039;-49
2022/10/15 02:45:59;;;;;;;14.63;12.25;;;15.20;99.90;;;;;;4973135;28;20031;-44
2022/10/15 02:48:25;;;;;;;14.85;13.15;;;15.10;99.90;;;;;;4973594;28;20027;-44
2022/10/15 02:50:51;;;;;;;14.95;13.45;;;15.10;99.90;;;;;;4975537;28;20030;-45
2022/10/15 02:53:16;;;;;;;15.07;13.57;;;15.20;99.90;;;;;;4975217;28;20046;-43
2022/10/15 02:55:42;;;;;;;17.02;15.00;;;15.20;99.90;;;;;;4975300;28;20027;-44
2022/10/15 02:58:07;;;;;;;17.23;14.77;;;15.20;99.90;;;;;;4975086;28;20479;-46
2022/10/15 03:00:33;;;;;;;18.45;15.63;;;15.20;99.90;;;;;;4975566;28;20030;-46
2022/10/15 03:02:58;;;;;;;17.88;14.80;;;15.20;99.90;;;;;;4975602;28;20034;-43
2022/10/15 03:05:24;;;;;;;15.32;13.73;;;15.20;99.90;;;;;;4975768;28;20375;-49
2022/10/15 03:07:49;;;;;;;17.90;15.27;;;15.10;99.90;;;;;;4975031;28;20029;-49
2022/10/15 03:10:15;;;;;;;16.65;14.02;;;15.20;99.90;;;;;;4974882;28;20411;-47
2022/10/15 03:12:41;;;;;;;15.40;13.57;;;15.10;99.90;;;;;;4974899;28;20041;-44
2022/10/15 03:15:07;;;;;;;16.98;14.02;;;15.20;99.90;;;;;;4975083;28;21259;-45
2022/10/15 03:17:32;;;;;;;14.93;13.45;;;15.10;99.90;;;;;;4972458;28;20033;-50
2022/10/15 03:19:58;;;;;;;17.65;12.98;;;15.10;99.90;;;;;;4974886;28;20022;-47
2022/10/15 03:22:23;;;;;;;15.93;13.13;;;15.20;99.90;;;;;;4974575;28;20034;-44
2022/10/15 03:24:49;;;;;;;16.63;12.93;;;15.20;99.90;;;;;;4973525;28;20023;-44
2022/10/15 03:27:14;;;;;;;15.95;12.57;;;15.20;99.90;;;;;;4974978;28;20025;-46
2022/10/15 03:29:40;;;;;;;13.25;11.82;;;15.10;99.90;;;;;;4974724;28;20030;-45
2022/10/15 03:32:05;;;;;;;15.88;13.00;;;15.20;99.90;;;;;;4972674;28;20031;-45
2022/10/15 03:34:31;;;;;;;13.82;11.30;;;15.20;99.90;;;;;;4974534;28;20058;-44
2022/10/15 03:36:56;;;;;;;12.88;11.60;;;15.20;99.90;;;;;;4973443;28;20030;-45
2022/10/15 03:39:22;;;;;;;18.08;15.52;;;15.20;99.90;;;;;;4972389;28;20037;-44
2022/10/15 03:41:47;;;;;;;20.67;16.20;;;15.20;99.90;;;;;;4973968;28;20030;-45
2022/10/15 03:44:13;;;;;;;12.65;11.40;;;15.20;99.90;;;;;;4974933;28;20438;-45
2022/10/15 03:46:38;;;;;;;13.95;11.43;;;15.20;99.90;;;;;;4974869;28;20031;-46
2022/10/15 03:49:04;;;;;;;11.27;9.90;;;15.20;99.90;;;;;;4974444;28;20023;-46
2022/10/15 03:51:30;;;;;;;11.25;10.05;;;15.10;99.90;;;;;;4974928;28;20043;-47
2022/10/15 03:53:55;;;;;;;13.38;9.50;;;15.20;99.90;;;;;;4974502;28;20026;-44
2022/10/15 03:56:20;;;;;;;10.93;9.82;;;15.20;99.90;;;;;;4974771;28;20041;-45
2022/10/15 03:58:46;;;;;;;11.70;10.50;;;15.20;99.90;;;;;;4973318;28;20579;-46
2022/10/15 04:01:14;;;;;;;12.15;10.00;;;15.10;99.90;;;;;;4973680;28;20034;-47
2022/10/15 04:03:40;;;;;;;11.35;10.18;;;15.10;99.90;;;;;;4974394;28;20582;-48
2022/10/15 04:06:06;;;;;;;10.25;9.35;;;15.20;99.90;;;;;;4974509;28;20031;-46
2022/10/15 04:08:31;;;;;;;11.15;9.20;;;15.10;99.90;;;;;;4974680;28;20394;-47
2022/10/15 04:10:58;;;;;;;11.32;9.77;;;15.10;99.90;;;;;;4974671;28;20371;-47
2022/10/15 04:13:24;;;;;;;10.95;9.50;;;15.10;99.90;;;;;;4974241;28;20034;-47
2022/10/15 04:15:49;;;;;;;9.68;8.68;;;15.20;99.90;;;;;;4974160;28;20109;-47
2022/10/15 04:18:15;;;;;;;11.38;9.40;;;15.10;99.90;;;;;;4974220;28;20059;-48
2022/10/15 04:20:41;;;;;;;11.15;9.23;;;15.20;99.90;;;;;;4974786;28;20482;-45
2022/10/15 04:23:07;;;;;;;11.82;8.55;;;15.20;99.90;;;;;;4974185;28;20140;-44
2022/10/15 04:25:33;;;;;;;10.38;8.70;;;15.10;99.90;;;;;;4974175;28;20482;-49
2022/10/15 04:27:58;;;;;;;12.73;8.25;;;15.10;99.90;;;;;;4972915;28;20085;-46
2022/10/15 04:30:24;;;;;;;10.35;9.27;;;15.10;99.90;;;;;;4973381;28;20026;-45
2022/10/15 04:32:53;;;;;;;8.88;7.97;;;15.10;99.90;;;;;;4973235;28;20387;-48
2022/10/15 04:35:19;;;;;;;9.77;8.15;;;15.10;99.90;;;;;;4974099;28;20039;-46
2022/10/15 04:37:44;;;;;;;8.88;7.97;;;15.10;99.90;;;;;;4974010;28;20027;-50
2022/10/15 04:40:11;;;;;;;8.95;8.15;;;15.20;99.90;;;;;;4973877;28;20090;-46
2022/10/15 04:42:37;;;;;;;9.95;8.55;;;15.20;99.90;;;;;;4973691;28;20110;-46
2022/10/15 04:45:03;;;;;;;10.70;9.02;;;15.10;99.90;;;;;;4973671;28;20058;-46
2022/10/15 04:47:28;;;;;;;10.18;8.77;;;15.10;99.90;;;;;;4973713;28;20034;-53
2022/10/15 04:49:54;;;;;;;8.88;7.97;;;15.20;99.90;;;;;;4973775;28;20027;-45
2022/10/15 04:52:19;;;;;;;9.52;8.30;;;15.10;99.90;;;;;;4973418;28;20080;-46
2022/10/15 04:54:45;;;;;;;9.45;8.55;;;15.10;99.90;;;;;;4973716;28;20491;-46
2022/10/15 04:57:10;;;;;;;9.43;8.52;;;15.10;99.90;;;;;;4973460;28;20498;-46
2022/10/15 04:59:36;;;;;;;11.45;7.25;;;15.10;99.90;;;;;;4973490;28;20030;-46
2022/10/15 05:02:01;;;;;;;8.05;6.95;;;15.10;99.90;;;;;;4973143;28;20038;-44
2022/10/15 05:04:27;;;;;;;8.50;7.43;;;15.00;99.90;;;;;;4973504;28;20023;-46
2022/10/15 05:06:52;;;;;;;11.30;7.28;;;15.00;99.90;;;;;;4973468;28;20395;-48
2022/10/15 05:09:18;;;;;;;7.85;6.60;;;15.00;99.90;;;;;;4973496;28;20031;-46
2022/10/15 05:11:43;;;;;;;8.30;6.00;;;15.00;99.90;;;;;;4973388;28;20030;-47
2022/10/15 05:14:09;;;;;;;7.25;6.55;;;14.90;99.90;;;;;;4973183;28;20043;-46
2022/10/15 05:16:35;;;;;;;6.70;6.10;;;15.00;99.90;;;;;;4973449;28;20035;-46
2022/10/15 05:19:05;;;;;;;6.95;6.25;;;14.90;99.90;;;;;;4973931;28;20033;-50
2022/10/15 05:21:32;;;;;;;10.73;6.18;;;14.90;99.90;;;;;;4973640;28;20046;-50
2022/10/15 05:23:58;;;;;;;6.07;5.57;;;15.00;99.90;;;;;;4973652;28;20386;-46
2022/10/15 05:26:25;;;;;;;7.40;6.65;;;15.00;99.90;;;;;;4973338;28;20106;-46
2022/10/15 05:28:52;;;;;;;6.35;5.75;;;14.90;99.90;;;;;;4971952;28;20395;-46
2022/10/15 05:31:19;;;;;;;12.10;6.32;;;14.90;99.90;;;;;;4973069;28;20031;-46
2022/10/15 05:33:47;;;;;;;11.13;6.65;;;14.90;99.90;;;;;;4973054;28;20023;-49
2022/10/15 05:36:27;;;;;;;6.78;6.15;;;14.90;99.90;;;;;;4973441;28;20061;-46
2022/10/15 05:38:55;;;;;;;6.05;5.55;;;14.90;99.90;;;;;;4972810;28;20404;-48
2022/10/15 05:41:21;;;;;;;6.00;5.50;;;14.90;99.90;;;;;;4971839;28;20031;-45
2022/10/15 05:43:48;;;;;;;6.35;4.78;;;14.90;99.90;;;;;;4972679;28;20034;-50
2022/10/15 05:46:14;;;;;;;5.70;4.55;;;15.00;99.90;;;;;;4972997;28;20109;-47
2022/10/15 05:48:40;;;;;;;6.40;5.28;;;15.00;99.90;;;;;;4972761;28;20058;-45
2022/10/15 05:51:10;;;;;;;6.07;5.57;;;15.10;99.90;;;;;;4972837;28;20065;-48
2022/10/15 05:53:36;;;;;;;5.72;5.22;;;15.10;99.90;;;;;;4972505;28;20027;-46
2022/10/15 05:56:02;;;;;;;6.38;5.78;;;15.00;99.90;;;;;;4973085;28;20027;-48
2022/10/15 05:58:29;;;;;;;5.78;5.25;;;15.00;99.90;;;;;;4972624;28;20052;-48
2022/10/15 06:01:00;;;;;;;7.78;7.00;;;15.00;99.90;;;;;;4972965;28;20506;-47
2022/10/15 06:03:26;;;;;;;6.10;5.18;;;15.00;99.90;;;;;;4972563;28;20058;-46
2022/10/15 06:05:52;;;;;;;4.72;4.32;;;15.00;99.90;;;;;;4971238;28;20046;-47
2022/10/15 06:08:19;;;;;;;4.82;4.43;;;14.90;99.90;;;;;;4971513;28;20100;-45
2022/10/15 06:10:45;;;;;;;5.95;4.13;;;14.90;99.90;;;;;;4972553;28;20363;-46
2022/10/15 06:13:11;;;;;;;4.72;4.32;;;14.90;99.90;;;;;;4972193;28;20031;-51
2022/10/15 06:15:42;;;;;;;5.38;4.35;;;14.90;99.90;;;;;;4972466;28;20042;-49
2022/10/15 06:18:08;;;;;;;4.28;3.97;;;15.00;99.90;;;;;;4971307;28;20027;-47
2022/10/15 06:20:35;;;;;;;6.15;4.55;;;15.00;99.90;;;;;;4972606;28;20026;-48
2022/10/15 06:23:03;;;;;;;4.10;3.80;;;15.00;99.90;;;;;;4972472;28;20022;-47
2022/10/15 06:25:29;;;;;;;5.47;3.25;;;15.00;99.90;;;;;;4972854;28;20019;-44
2022/10/15 06:27:54;;;;;;;3.92;3.63;;;15.00;99.90;;;;;;4972741;28;20029;-45
2022/10/15 06:30:20;;;;;;;3.60;3.30;;;15.00;99.90;;;;;;4971688;28;20027;-46
2022/10/15 06:32:56;;;;;;;3.65;3.40;;;15.00;99.90;;;;;;4971533;28;20483;-45
2022/10/15 06:35:22;;;;;;;;;;;15.00;99.90;;;;;;4972746;28;20034;-46
2022/10/15 06:37:48;;;;;;;11.00;4.15;;;14.90;99.90;;;;;;4972415;28;19941;-48
2022/10/15 06:40:14;;;;;;;5.47;3.17;;;14.90;99.90;;;;;;4972334;28;20031;-48
2022/10/15 06:42:40;;;;;;;3.25;2.95;;;14.90;99.90;;;;;;4972361;28;20034;-48
2022/10/15 06:45:07;;;;;;;5.78;3.50;;;15.00;99.90;;;;;;4972552;28;20029;-50
2022/10/15 06:47:32;;;;;;;2.97;2.78;;;14.90;99.90;;;;;;4972682;28;20570;-46
2022/10/15 06:49:59;;;;;;;3.40;3.20;;;15.00;99.90;;;;;;4971052;28;20055;-48
2022/10/15 06:52:24;;;;;;;3.80;3.50;;;15.00;99.90;;;;;;4973005;28;20046;-45
2022/10/15 06:54:50;;;;;;;9.48;3.28;;;15.00;99.90;;;;;;4975753;28;20031;-46
2022/10/15 06:57:16;;;;;;;3.22;3.03;;;15.00;99.90;;;;;;4975801;28;20027;-52
2022/10/15 06:59:41;;;;;;;3.38;3.08;;;15.00;99.90;;;;;;4975813;28;20039;-47
2022/10/15 07:02:10;;;;;;;5.10;3.22;;;15.00;99.90;;;;;;4975507;28;20462;-51
2022/10/15 07:04:36;;;;;;;3.55;3.22;;;15.00;99.90;;;;;;4975856;28;20098;-50
2022/10/15 07:07:02;;;;;;;4.18;3.78;;;15.00;99.90;;;;;;4975817;28;20106;-48
2022/10/15 07:09:27;;;;;;;4.13;3.45;;;15.00;99.90;;;;;;4975722;28;20077;-53
2022/10/15 07:11:53;;;;;;;7.40;4.40;;;15.00;99.90;;;;;;4975337;28;20423;-44
2022/10/15 07:14:18;;;;;;;4.72;3.97;;;15.10;99.90;;;;;;4976105;28;20027;-48
2022/10/15 07:16:44;;;;;;;8.48;4.30;;;15.10;99.90;;;;;;4975835;28;20457;-54
2022/10/15 07:19:09;;;;;;;3.90;3.53;;;15.10;99.90;;;;;;4974811;28;20038;-48
2022/10/15 07:21:35;;;;;;;5.07;4.57;;;15.10;99.90;;;;;;4976187;28;20154;-47
2022/10/15 07:24:00;;;;;;;5.20;4.70;;;15.10;99.90;;;;;;4975238;28;20487;-50
2022/10/15 07:26:29;;;;;;;5.10;4.60;;;15.20;99.90;;;;;;4974183;28;20029;-50
2022/10/15 07:28:55;;;;;;;7.57;4.97;;;15.20;99.90;;;;;;4975596;28;20026;-51
2022/10/15 07:31:21;;;;;;;7.22;5.00;;;15.30;99.90;;;;;;4974524;28;20026;-45
2022/10/15 07:33:47;;;;;;;5.43;4.93;;;15.30;99.90;;;;;;4975105;28;20022;-51
2022/10/15 07:36:13;;;;;;;9.48;5.70;;;15.30;99.90;;;;;;4975613;28;20027;-48
2022/10/15 07:38:39;;;;;;;7.00;5.03;;;15.30;99.90;;;;;;4975235;28;20547;-48
2022/10/15 07:41:06;;;;;;;5.82;5.32;;;15.40;99.90;;;;;;4974986;28;20019;-48
2022/10/15 07:43:32;;;;;;;6.30;5.57;;;15.40;99.90;;;;;;4974801;28;20027;-51
2022/10/15 07:45:57;;;;;;;6.57;5.97;;;15.40;99.90;;;;;;4975155;28;20019;-48
2022/10/15 07:48:24;;;;;;;6.07;5.47;;;15.40;99.90;;;;;;4975220;28;20018;-47
2022/10/15 07:51:01;;;;;;;5.50;5.10;;;15.50;99.90;;;;;;4975381;28;20461;-47
2022/10/15 07:53:27;;;;;;;5.22;4.82;;;15.50;99.90;;;;;;4974847;28;20034;-52
2022/10/15 07:55:53;;;;;;;5.68;5.05;;;15.50;99.90;;;;;;4975050;28;20034;-47
2022/10/15 07:58:18;;;;;;;5.78;5.28;;;15.60;99.90;;;;;;4974968;28;20034;-47
2022/10/15 08:00:44;;;;;;;6.15;5.47;;;15.60;99.90;;;;;;4975679;28;20038;-48
2022/10/15 08:03:10;;;;;;;5.90;4.70;;;15.70;99.90;;;;;;4974623;28;20567;-50
2022/10/15 08:05:35;;;;;;;7.13;4.93;;;15.80;99.90;;;;;;4974874;28;20051;-46
2022/10/15 08:08:01;;;;;;;6.30;4.78;;;15.80;99.90;;;;;;4975255;28;20042;-50
2022/10/15 08:10:27;;;;;;;5.60;5.05;;;16.00;99.90;;;;;;4974906;28;20035;-53
2022/10/15 08:12:52;;;;;;;7.10;4.10;;;16.00;99.90;;;;;;4973347;28;20089;-47
2022/10/15 08:17:52;;;;;;;4.83;4.07;;;16.10;99.90;;;;;;5016279;23;20137;-54
2022/10/15 08:20:18;;;;;;;7.40;3.30;;;16.20;99.90;;;;;;4993347;28;20114;-49
2022/10/15 08:22:43;;;;;;;4.78;3.67;;;16.20;99.90;;;;;;4993200;28;20060;-52
2022/10/15 08:25:09;;;;;;;5.70;3.45;;;16.20;99.90;;;;;;4994296;28;20030;-49
2022/10/15 08:27:35;;;;;;;2.88;2.60;;;16.20;99.90;;;;;;4993370;28;20203;-50
2022/10/15 08:30:00;;;;;;;4.78;3.25;;;16.20;99.90;;;;;;4994358;28;20494;-53
2022/10/15 08:32:26;;;;;;;2.85;2.60;;;16.30;99.90;;;;;;4994511;28;20494;-52
2022/10/15 08:34:51;;;;;;;2.67;2.47;;;16.30;99.90;;;;;;4993255;28;20085;-50
2022/10/15 08:37:17;;;;;;;2.40;2.20;;;16.40;99.90;;;;;;4994602;28;20076;-53
2022/10/15 08:39:42;;;;;;;2.20;2.08;;;16.50;99.90;;;;;;4994329;28;20031;-50
2022/10/15 08:42:30;;;;;;;3.63;2.28;;;16.50;99.90;;;;;;4992885;28;20069;-52
2022/10/15 08:45:01;;;;;;;3.70;2.13;;;16.50;99.90;;;;;;4992642;28;20022;-56
2022/10/15 08:47:47;;;;;;;2.88;2.50;;;16.60;99.90;;;;;;4994280;28;20113;-54
2022/10/15 08:50:42;;;;;;;2.97;1.80;;;16.60;99.90;;;;;;4992753;28;20452;-53
2022/10/15 08:53:13;;;;;;;2.35;1.90;;;16.50;99.90;;;;;;4993884;28;20092;-50
2022/10/15 08:55:42;;;;;;;2.40;2.20;;;16.60;99.90;;;;;;4993814;28;20033;-52
2022/10/15 08:58:21;;;;;;;1.80;1.70;;;16.60;99.90;;;;;;4993872;28;20057;-51
2022/10/15 09:01:02;;;;;;;3.08;2.15;;;16.60;99.90;;;;;;4994201;28;20395;-55
2022/10/15 09:04:12;;;;;;;2.10;1.90;;;16.70;99.90;;;;;;4993788;28;20072;-50
2022/10/15 09:06:39;;;;;;;5.25;1.88;;;16.70;99.90;;;;;;4982876;28;20042;-51
2022/10/15 09:09:16;;;;;;;6.03;1.70;;;16.70;99.90;;;;;;4993958;28;20030;-50
2022/10/15 09:12:11;;;;;;;2.13;1.75;;;16.70;99.90;;;;;;4993589;28;20030;-53
2022/10/15 09:14:41;;;;;;;1.73;1.63;;;16.80;99.90;;;;;;4993511;28;20474;-49
2022/10/15 09:17:20;;;;;;;2.80;2.00;;;16.80;99.90;;;;;;4993373;28;20421;-54
2022/10/15 09:19:49;;;;;;;2.55;1.80;;;16.90;99.90;;;;;;4993685;28;20037;-49
2022/10/15 09:22:22;;;;;;;4.47;2.20;;;16.90;99.90;;;;;;4993348;28;20486;-49
2022/10/15 09:24:47;;;;;;;1.85;1.75;;;16.90;99.90;;;;;;4993455;28;20023;-55
2022/10/15 09:27:39;;;;;;;1.40;1.30;;;17.00;99.90;;;;;;4993224;28;20451;-50
2022/10/15 09:30:31;;;;;;;1.80;1.70;;;17.10;99.90;;;;;;4990788;28;20112;-52
2022/10/15 09:33:29;;;;;;;3.33;1.58;;;17.10;99.90;;;;;;4993472;28;20046;-51
2022/10/15 09:36:11;;;;;;;1.02;1.02;;;17.10;99.90;;;;;;4993436;28;20022;-49
2022/10/15 09:38:42;;;;;;;2.67;1.05;;;17.10;99.90;;;;;;4992193;28;20057;-50
2022/10/15 09:41:52;;;;;;;0.93;0.93;;;17.20;99.90;;;;;;4993265;28;20105;-50
2022/10/15 09:44:21;;;;;;;5.38;1.20;;;17.20;99.90;;;;;;4993581;28;20406;-50
2022/10/15 09:46:49;;;;;;;1.10;0.95;;;17.30;99.90;;;;;;4991985;28;20057;-51
2022/10/15 09:49:26;;;;;;;1.63;0.90;;;17.40;99.90;;;;;;4993273;28;20540;-52
2022/10/15 09:52:10;;;;;;;1.33;0.77;;;17.50;99.90;;;;;;4993172;28;20442;-52
2022/10/15 09:55:07;;;;;;;1.42;1.00;;;17.50;99.90;;;;;;4993348;28;20026;-50
2022/10/15 09:57:35;;;;;;;1.50;1.15;;;17.60;99.90;;;;;;4993842;28;20022;-50
2022/10/15 10:00:03;;;;;;;11.73;1.15;;;17.60;99.90;;;;;;4994169;28;20027;-51
2022/10/15 10:02:29;;;;;;;6.32;1.30;;;17.60;99.90;;;;;;4992641;28;20053;-49
2022/10/15 10:04:55;;;;;;;1.05;1.05;;;17.50;99.90;;;;;;4993390;28;20475;-49
2022/10/15 10:07:29;;;;;;;1.20;1.10;;;17.50;99.90;;;;;;4993352;28;20038;-55
2022/10/15 10:09:57;;;;;;;1.07;1.00;;;17.40;99.90;;;;;;4992910;28;20026;-53
2022/10/15 10:12:27;;;;;;;1.00;1.00;;;17.30;99.90;;;;;;4992526;28;20477;-54
2022/10/15 10:14:56;;;;;;;1.30;0.93;;;17.20;99.90;;;;;;4993512;28;20026;-52
2022/10/15 10:17:23;;;;;;;4.72;1.10;;;17.20;99.90;;;;;;4992876;28;20035;-54
2022/10/15 10:20:07;;;;;;;4.63;0.98;;;17.20;99.90;;;;;;4993132;28;20100;-55
2022/10/15 10:22:49;;;;;;;5.43;1.13;;;17.20;99.90;;;;;;4992805;28;20518;-55
2022/10/15 10:25:27;;;;;;;1.08;1.08;;;17.30;99.90;;;;;;4993302;28;20029;-50
2022/10/15 10:28:08;;;;;;;1.85;0.90;;;17.30;99.90;;;;;;4995071;28;20034;-51
2022/10/15 10:30:37;;;;;;;2.85;1.00;;;17.30;99.90;;;;;;4996439;28;20026;-54
2022/10/15 10:33:04;;;;;;;4.55;1.00;;;17.40;99.90;;;;;;4996540;28;20027;-49
2022/10/15 10:35:45;;;;;;;1.35;0.60;;;17.50;99.90;;;;;;4997229;28;20487;-49
2022/10/15 10:38:39;;;;;;;0.68;0.68;;;17.50;99.90;;;;;;4996756;28;20042;-51
2022/10/15 10:41:08;;;;;;;0.75;0.75;;;17.50;99.90;;;;;;4994992;28;20046;-50
2022/10/15 10:43:52;;;;;;;0.70;0.70;;;17.50;99.90;;;;;;4994833;28;20026;-53
2022/10/15 10:46:21;;;;;;;0.82;0.80;;;17.50;99.90;;;;;;4996444;28;20034;-51
2022/10/15 10:48:53;;;;;;;3.28;1.42;;;17.40;99.90;;;;;;4996699;28;20022;-55
2022/10/15 10:51:20;;;;;;;3.83;1.20;;;17.40;99.90;;;;;;4996716;28;20075;-51
2022/10/15 10:53:47;;;;;;;1.60;1.50;;;17.40;99.90;;;;;;4996266;28;20062;-52
2022/10/15 10:56:19;;;;;;;1.95;1.75;;;17.40;99.90;;;;;;4996310;28;20423;-51
2022/10/15 10:58:44;;;;;;;4.85;1.90;;;17.50;99.90;;;;;;4995932;28;20030;-52
2022/10/15 11:01:12;;;;;;;2.60;2.30;;;18.10;99.90;;;;;;4996031;28;20030;-52
2022/10/15 11:03:41;;;;;;;3.30;1.90;;;17.40;99.90;;;;;;4995784;28;20031;-53
2022/10/15 11:06:19;;;;;;;2.05;1.88;;;17.50;99.90;;;;;;4995977;28;20464;-55
2022/10/15 11:08:58;;;;;;;3.47;1.90;;;17.50;99.90;;;;;;4995957;28;20050;-52
2022/10/15 11:11:43;;;;;;;5.18;1.73;;;17.60;99.90;;;;;;4996226;28;20032;-50
2022/10/15 11:14:23;;;;;;;4.07;1.90;;;17.80;99.90;;;;;;4996029;28;20054;-56
2022/10/15 11:17:08;;;;;;;4.78;2.28;;;18.00;99.90;;;;;;4996173;28;20130;-54
2022/10/15 11:19:43;;;;;;;4.50;1.55;;;18.10;99.90;;;;;;4995050;28;20487;-51
2022/10/15 11:22:17;;;;;;;1.70;1.40;;;18.20;99.90;;;;;;4995708;28;20042;-55
2022/10/15 11:24:51;;;;;;;2.27;1.47;;;18.20;99.90;;;;;;4995758;28;20030;-54
2022/10/15 11:27:40;;;;;;;3.30;1.55;;;18.10;99.90;;;;;;4995681;28;20030;-53
2022/10/15 11:30:11;;;;;;;3.47;1.40;;;18.00;99.90;;;;;;4995685;28;20092;-51
2022/10/15 11:32:51;;;;;;;1.90;1.10;;;17.90;99.90;;;;;;4994960;28;20085;-54
2022/10/15 11:35:28;;;;;;;5.53;1.67;;;17.70;99.90;;;;;;4995587;28;20026;-51
2022/10/15 11:38:29;;;;;;;2.50;1.45;;;17.70;99.90;;;;;;4995280;28;20398;-50
2022/10/15 11:41:02;;;;;;;2.38;1.80;;;17.60;99.90;;;;;;4995659;28;20058;-56
2022/10/15 11:43:37;;;;;;;4.20;1.77;;;17.60;99.90;;;;;;4994844;28;20074;-49
2022/10/15 11:46:12;;;;;;;4.25;2.58;;;17.60;99.90;;;;;;4996023;28;20022;-52
2022/10/15 11:48:55;;;;;;;2.10;1.95;;;17.60;99.90;;;;;;4995342;28;20030;-53
2022/10/15 11:51:32;;;;;;;3.90;2.60;;;17.70;99.90;;;;;;4995714;28;20457;-51
2022/10/15 11:54:12;;;;;;;4.13;2.38;;;17.70;99.90;;;;;;4993746;28;20045;-54
2022/10/15 11:56:43;;;;;;;3.85;3.53;;;17.80;99.90;;;;;;4995159;28;20042;-51
2022/10/15 11:59:25;;;;;;;13.15;9.57;;;17.80;99.90;;;;;;4995147;28;20106;-50
2022/10/15 12:01:58;;;;;;;6.20;2.50;;;17.80;99.90;;;;;;4991485;28;20039;-53
2022/10/15 12:04:48;;;;;;;3.72;2.50;;;17.70;99.90;;;;;;4993408;28;20019;-53
2022/10/15 12:07:29;;;;;;;6.82;2.30;;;17.70;99.90;;;;;;4994533;28;20106;-50
2022/10/15 12:10:26;;;;;;;2.95;2.10;;;17.70;99.90;;;;;;4992858;28;20401;-55
2022/10/15 12:13:00;;;;;;;3.92;2.08;;;17.60;99.90;;;;;;4981983;28;20049;-53
2022/10/15 12:15:26;;;;;;;3.33;1.90;;;17.60;99.90;;;;;;4994651;28;20057;-51
2022/10/15 12:18:02;;;;;;;1.58;1.48;;;17.60;99.90;;;;;;4994192;28;20128;-51
2022/10/15 12:20:28;;;;;;;2.28;1.58;;;17.60;99.90;;;;;;4994659;28;20026;-51
2022/10/15 12:23:01;;;;;;;1.73;1.60;;;17.70;99.90;;;;;;4993236;28;20023;-50
2022/10/15 12:25:32;;;;;;;5.75;1.60;;;17.60;99.90;;;;;;4994618;28;20034;-50
2022/10/15 12:28:03;;;;;;;4.07;2.05;;;17.60;99.90;;;;;;4994916;28;20027;-53
2022/10/15 12:30:35;;;;;;;1.90;1.40;;;17.70;99.90;;;;;;4994432;28;20022;-59
2022/10/15 12:33:03;;;;;;;5.50;1.38;;;17.70;99.90;;;;;;4993989;28;20031;-51
2022/10/15 12:35:37;;;;;;;4.43;1.70;;;17.70;99.90;;;;;;4994569;28;20022;-52
2022/10/15 12:38:33;;;;;;;3.22;1.52;;;17.70;99.90;;;;;;4994947;28;20033;-50
2022/10/15 12:41:03;;;;;;;2.22;1.30;;;17.70;99.90;;;;;;4994440;28;20614;-50
2022/10/15 12:43:30;;;;;;;2.72;1.40;;;17.80;99.90;;;;;;4994503;28;20514;-50
2022/10/15 12:46:01;;;;;;;1.83;1.65;;;17.80;99.90;;;;;;4994197;28;20023;-51
2022/10/15 12:48:30;;;;;;;2.08;0.80;;;17.80;99.90;;;;;;4993966;28;20459;-53
2022/10/15 12:51:14;;;;;;;5.93;1.35;;;17.80;99.90;;;;;;4993388;28;20106;-50
2022/10/15 12:53:44;;;;;;;2.40;0.95;;;17.90;99.90;;;;;;4993877;28;20034;-53
2022/10/15 12:56:10;;;;;;;1.88;1.10;;;17.90;99.90;;;;;;4994874;28;20030;-52
2022/10/15 12:58:37;;;;;;;1.95;1.20;;;17.90;99.90;;;;;;4994829;28;20398;-51
2022/10/15 13:01:41;;;;;;;33.25;22.13;;;17.90;99.90;;;;;;4994322;28;20038;-53
2022/10/15 13:04:06;;;;;;;21.80;14.88;;;17.90;99.90;;;;;;4993928;28;20034;-51